Time;durP1;ratioP1;P1;durP2;ratioP2;P2;SDS_P1;SDS_P2;PMS_P1;PMS_P2;Temp;Humidity;BMP_temperature;BMP_pressure;BME280_temperature;BME280_humidity;BME280_pressure;Samples;Min_cycle;Max_cycle;Signal;HPM_P1;HPM_P2
2023/04/07 00:02:12;;;;;;;11.13;7.17;;;7.90;77.90;;;11.26;47.86;97607.19;5059253;28;20422;-48
2023/04/07 00:04:40;;;;;;;11.87;6.60;;;8.00;77.30;;;11.27;47.94;97605.38;5061632;28;20045;-47
2023/04/07 00:07:08;;;;;;;9.60;6.87;;;8.00;77.20;;;11.27;47.85;97606.19;5063549;28;20489;-48
2023/04/07 00:09:35;;;;;;;8.50;6.60;;;8.00;77.20;;;11.28;47.98;97604.34;5062633;28;20041;-47
2023/04/07 00:12:03;;;;;;;13.00;7.67;;;7.90;77.80;;;11.23;48.19;97605.69;5060062;28;20041;-46
2023/04/07 00:14:31;;;;;;;12.23;7.03;;;7.90;77.60;;;11.21;47.77;97605.03;5058978;28;20048;-45
2023/04/07 00:16:58;;;;;;;11.60;7.90;;;8.00;76.90;;;11.16;48.09;97596.69;5063562;28;20051;-47
2023/04/07 00:19:26;;;;;;;8.93;5.87;;;7.90;77.40;;;11.18;48.32;97599.19;5063636;28;20044;-48
2023/04/07 00:21:53;;;;;;;10.97;7.57;;;8.00;77.50;;;11.21;48.17;97605.03;5058701;28;20041;-48
2023/04/07 00:24:21;;;;;;;8.33;6.40;;;7.90;77.30;;;11.25;48.41;97594.88;5059283;28;20045;-47
2023/04/07 00:27:01;;;;;;;13.03;6.70;;;8.00;77.50;;;11.29;47.87;97587.38;5052767;28;20060;-46
2023/04/07 00:29:29;;;;;;;9.50;6.77;;;7.90;77.80;;;11.29;48.38;97590.03;5059930;28;20044;-45
2023/04/07 00:31:57;;;;;;;10.30;7.87;;;7.90;77.60;;;11.28;48.38;97589.19;5051704;28;20037;-46
2023/04/07 00:34:25;;;;;;;9.87;7.00;;;7.90;78.10;;;11.27;48.07;97581.38;5057621;28;20060;-46
2023/04/07 00:36:52;;;;;;;10.40;7.07;;;7.90;78.30;;;11.27;48.32;97576.88;5061107;28;20048;-45
2023/04/07 00:39:20;;;;;;;9.83;6.87;;;7.90;78.20;;;11.27;48.62;97565.41;5062870;28;20047;-48
2023/04/07 00:41:48;;;;;;;11.27;6.93;;;7.90;78.30;;;11.27;48.34;97574.22;5059021;28;20052;-47
2023/04/07 00:44:16;;;;;;;15.13;8.30;;;7.90;78.40;;;11.28;48.72;97570.53;5057635;28;20059;-46
2023/04/07 00:46:45;;;;;;;13.17;7.20;;;7.90;78.70;;;11.26;48.68;97571.72;5058329;28;20045;-48
2023/04/07 00:49:16;;;;;;;12.37;7.60;;;7.90;78.90;;;11.23;48.74;97565.72;5028706;28;20055;-48
2023/04/07 00:51:45;;;;;;;10.87;6.83;;;7.80;79.10;;;11.22;48.70;97561.41;5059808;28;20516;-47
2023/04/07 00:54:13;;;;;;;9.87;7.40;;;7.80;79.30;;;11.23;48.58;97564.91;5057845;28;20426;-48
2023/04/07 00:56:41;;;;;;;10.43;7.33;;;7.80;79.40;;;11.21;48.77;97565.06;5057787;28;20064;-46
2023/04/07 00:59:10;;;;;;;11.80;7.20;;;7.80;79.40;;;11.20;48.64;97565.22;5042105;28;20044;-47
2023/04/07 01:02:08;;;;;;;9.70;6.80;;;7.80;79.80;;;11.18;48.87;97556.56;5060757;28;20040;-45
2023/04/07 01:05:07;;;;;;;10.40;7.00;;;7.80;80.30;;;11.15;48.70;97554.25;5058309;28;20045;-48
2023/04/07 01:08:14;;;;;;;10.23;7.13;;;7.70;80.40;;;11.12;48.50;97550.06;5060797;28;20047;-47
2023/04/07 01:10:52;;;;;;;10.60;7.00;;;7.70;80.80;;;11.13;48.83;97541.09;5058940;28;20045;-49
2023/04/07 01:13:56;;;;;;;11.20;7.30;;;7.70;80.80;;;11.10;48.64;97532.59;5060315;28;20051;-48
2023/04/07 01:16:50;;;;;;;10.03;7.20;;;7.70;80.50;;;11.12;48.36;97530.59;5020624;28;20060;-48
2023/04/07 01:19:45;;;;;;;9.33;6.53;;;7.70;80.70;;;11.11;48.43;97521.78;5026070;28;20041;-46
2023/04/07 01:22:21;;;;;;;11.60;7.97;;;7.70;80.60;;;11.09;48.92;97525.59;5051943;28;20525;-45
2023/04/07 01:25:21;;;;;;;9.87;7.80;;;7.70;80.40;;;11.06;48.59;97516.09;5043251;28;20049;-45
2023/04/07 01:28:00;;;;;;;11.17;7.20;;;7.70;80.50;;;11.07;48.96;97509.78;5058883;28;20049;-45
2023/04/07 01:30:33;;;;;;;14.33;7.23;;;7.70;80.50;;;11.07;48.94;97512.44;5038042;28;20049;-51
2023/04/07 01:33:02;;;;;;;10.70;7.00;;;7.70;80.50;;;11.10;49.15;97512.09;5049804;28;20045;-50
2023/04/07 01:35:34;;;;;;;13.30;7.87;;;7.70;80.00;;;11.10;49.28;97513.94;5057359;28;20064;-47
2023/04/07 01:38:03;;;;;;;9.73;7.23;;;7.70;80.50;;;11.09;48.87;97510.44;5033803;28;20287;-50
2023/04/07 01:40:34;;;;;;;9.20;6.80;;;7.70;80.40;;;11.06;49.26;97509.94;5057508;28;20049;-47
2023/04/07 01:43:02;;;;;;;11.70;7.13;;;7.70;79.90;;;10.99;49.37;97505.28;5029802;28;20506;-47
2023/04/07 01:45:33;;;;;;;9.97;6.10;;;7.70;79.60;;;10.99;49.37;97507.97;5034048;28;20049;-45
2023/04/07 01:48:01;;;;;;;10.73;7.17;;;7.70;80.10;;;11.00;49.34;97514.94;5050660;28;20037;-47
2023/04/07 01:50:30;;;;;;;10.40;7.23;;;7.60;80.20;;;11.02;49.09;97502.28;5056970;28;20037;-46
2023/04/07 01:52:58;;;;;;;12.03;7.27;;;7.70;80.30;;;11.07;49.19;97503.59;5060001;28;20421;-47
2023/04/07 01:55:27;;;;;;;9.67;7.00;;;7.60;80.20;;;11.05;49.43;97501.13;5061100;28;20040;-49
2023/04/07 01:58:06;;;;;;;11.00;6.87;;;7.60;80.50;;;11.07;49.60;97496.47;5042442;28;20044;-46
2023/04/07 02:00:35;;;;;;;10.13;6.50;;;7.70;80.30;;;11.07;49.15;97500.94;5056688;28;20048;-50
2023/04/07 02:03:21;;;;;;;9.98;6.50;;;7.70;80.10;;;11.10;49.41;97492.63;5044037;28;20052;-48
2023/04/07 02:05:56;;;;;;;11.03;7.97;;;7.70;80.10;;;11.14;49.37;97497.44;5059073;28;20045;-46
2023/04/07 02:08:29;;;;;;;10.63;7.53;;;7.70;79.90;;;11.11;48.98;97492.47;5057318;28;20041;-48
2023/04/07 02:11:02;;;;;;;10.70;7.27;;;7.70;80.00;;;11.11;49.33;97486.28;5051779;28;20505;-48
2023/04/07 02:13:34;;;;;;;;;;;7.70;80.10;;;11.13;48.96;97489.63;5045029;28;20045;-49
2023/04/07 02:16:01;;;;;;;11.90;7.03;;;7.70;80.90;;;11.14;49.09;97485.94;5032974;28;19921;-50
2023/04/07 02:18:31;;;;;;;11.50;6.97;;;7.60;80.20;;;11.11;48.80;97480.94;5057039;28;20502;-45
2023/04/07 02:21:01;;;;;;;10.73;7.10;;;7.70;80.00;;;11.11;49.03;97476.47;5059770;28;20040;-45
2023/04/07 02:23:29;;;;;;;11.37;6.93;;;7.70;79.70;;;11.13;49.20;97486.97;5043957;28;20132;-49
2023/04/07 02:25:57;;;;;;;10.17;7.07;;;7.70;79.70;;;11.13;49.32;97473.66;5060091;28;20055;-47
2023/04/07 02:28:24;;;;;;;9.30;5.97;;;7.70;79.40;;;11.13;49.18;97477.13;5061971;28;20033;-49
2023/04/07 02:30:52;;;;;;;10.60;6.97;;;7.70;79.30;;;11.13;48.86;97477.13;5062692;28;20053;-49
2023/04/07 02:33:20;;;;;;;10.57;6.87;;;7.70;79.30;;;11.14;49.30;97473.47;5063998;28;20509;-44
2023/04/07 02:35:47;;;;;;;11.07;7.90;;;7.70;79.30;;;11.13;49.29;97473.66;5064001;28;20063;-47
2023/04/07 02:38:15;;;;;;;9.50;7.00;;;7.70;79.30;;;11.15;48.91;97463.66;5061251;28;20048;-49
2023/04/07 02:40:42;;;;;;;10.73;7.03;;;7.70;79.00;;;11.13;48.96;97465.66;5061059;28;20049;-48
2023/04/07 02:43:10;;;;;;;12.67;7.40;;;7.70;79.10;;;11.09;49.12;97465.16;5063161;28;20044;-46
2023/04/07 02:45:37;;;;;;;9.40;6.53;;;7.70;79.50;;;11.06;49.47;97468.16;5065141;28;20047;-47
2023/04/07 02:48:05;;;;;;;11.87;8.17;;;7.60;79.70;;;11.08;49.45;97467.97;5060246;28;20056;-47
2023/04/07 02:50:33;;;;;;;11.53;7.63;;;7.70;79.80;;;11.06;49.46;97464.66;5060255;28;20052;-48
2023/04/07 02:53:00;;;;;;;13.17;7.73;;;7.60;79.90;;;11.02;49.48;97451.66;5063009;28;20052;-47
2023/04/07 02:55:28;;;;;;;11.17;7.17;;;7.70;80.10;;;11.04;49.38;97456.81;5063845;28;20092;-46
2023/04/07 02:57:55;;;;;;;12.57;7.60;;;7.60;80.10;;;11.03;49.08;97457.81;5060726;28;20056;-47
2023/04/07 03:00:37;;;;;;;10.73;7.93;;;7.60;79.90;;;11.04;49.08;97448.84;5059919;28;20053;-45
2023/04/07 03:03:11;;;;;;;12.55;7.07;;;7.60;80.00;;;11.02;49.29;97457.00;5051741;28;20041;-45
2023/04/07 03:05:42;;;;;;;10.10;6.67;;;7.60;80.10;;;11.02;49.05;97453.50;5060155;28;20048;-46
2023/04/07 03:08:11;;;;;;;9.97;7.10;;;7.60;80.10;;;11.02;49.53;97448.19;5063470;28;20047;-46
2023/04/07 03:10:39;;;;;;;11.40;7.37;;;7.60;80.20;;;11.02;49.64;97449.00;5062903;28;20051;-46
2023/04/07 03:13:08;;;;;;;11.13;7.03;;;7.60;80.30;;;11.04;49.32;97452.31;5060786;28;20033;-48
2023/04/07 03:15:37;;;;;;;15.30;7.47;;;7.60;80.20;;;11.06;49.41;97444.16;5059758;28;20521;-47
2023/04/07 03:18:05;;;;;;;12.20;7.17;;;7.60;79.80;;;11.09;49.19;97453.66;5053483;28;20037;-49
2023/04/07 03:20:34;;;;;;;11.33;7.10;;;7.70;79.90;;;11.08;49.16;97447.50;5059546;28;20048;-46
2023/04/07 03:23:07;;;;;;;15.57;7.88;;;7.70;79.80;;;11.08;49.30;97444.00;5051276;28;20047;-47
2023/04/07 03:25:36;;;;;;;13.23;7.90;;;7.60;79.90;;;11.08;49.08;97442.16;5056154;28;20046;-48
2023/04/07 03:28:03;;;;;;;12.67;7.83;;;7.60;79.80;;;11.07;49.19;97443.19;5062674;28;20036;-46
2023/04/07 03:30:34;;;;;;;10.93;7.10;;;7.60;79.70;;;11.08;49.43;97431.50;5063082;28;20043;-46
2023/04/07 03:33:02;;;;;;;11.00;7.07;;;7.60;79.60;;;11.08;49.09;97425.38;5059617;28;20045;-46
2023/04/07 03:35:31;;;;;;;11.80;7.60;;;7.70;79.50;;;11.08;49.51;97425.38;5039929;28;20048;-45
2023/04/07 03:37:58;;;;;;;10.77;7.20;;;7.70;79.70;;;11.10;49.16;97429.50;5059404;28;20533;-46
2023/04/07 03:40:26;;;;;;;11.90;7.93;;;7.70;79.60;;;11.08;49.42;97439.50;5062373;28;20044;-46
2023/04/07 03:42:54;;;;;;;10.57;6.97;;;7.70;79.60;;;11.08;49.19;97425.38;5059666;28;20548;-48
2023/04/07 03:45:21;;;;;;;8.93;6.80;;;7.70;79.30;;;11.09;49.27;97419.88;5059651;28;20497;-45
2023/04/07 03:47:53;;;;;;;9.40;7.53;;;7.70;79.10;;;11.11;49.24;97417.88;5060464;28;20060;-45
2023/04/07 03:50:21;;;;;;;11.73;7.33;;;7.70;79.20;;;11.13;49.00;97418.53;5062626;28;20033;-48
2023/04/07 03:53:10;;;;;;;10.37;7.07;;;7.80;79.00;;;11.14;49.25;97419.34;5058383;28;20049;-45
2023/04/07 03:55:38;;;;;;;10.83;8.33;;;7.80;78.60;;;11.12;49.24;97419.50;5059060;28;20049;-44
2023/04/07 03:58:14;;;;;;;11.60;7.70;;;7.80;78.90;;;11.11;48.96;97423.19;5043606;28;20045;-47
2023/04/07 04:00:44;;;;;;;11.07;7.60;;;7.70;79.00;;;11.10;49.28;97420.69;5055517;28;20053;-45
2023/04/07 04:03:12;;;;;;;11.33;7.60;;;7.70;79.10;;;11.10;49.42;97420.69;5061595;28;20048;-47
2023/04/07 04:05:49;;;;;;;11.53;7.57;;;7.70;79.30;;;11.08;49.29;97412.03;5061661;28;20049;-45
2023/04/07 04:08:21;;;;;;;12.93;8.40;;;7.70;79.40;;;11.04;49.35;97412.38;5059007;28;20045;-47
2023/04/07 04:10:50;;;;;;;11.43;7.03;;;7.60;79.50;;;11.06;49.26;97417.53;5059694;28;20414;-46
2023/04/07 04:13:18;;;;;;;11.13;7.13;;;7.60;79.50;;;11.04;49.44;97412.38;5062164;28;20041;-49
2023/04/07 04:15:46;;;;;;;15.43;8.67;;;7.60;79.50;;;11.03;49.32;97408.06;5045144;28;20044;-48
2023/04/07 04:18:16;;;;;;;14.30;7.90;;;7.60;79.50;;;11.02;49.55;97403.72;5058506;28;20041;-45
2023/04/07 04:20:44;;;;;;;10.90;7.27;;;7.60;79.80;;;11.01;49.53;97407.41;5058475;28;20060;-48
2023/04/07 04:23:12;;;;;;;12.90;8.13;;;7.60;79.70;;;10.99;49.44;97409.41;5061025;28;20059;-45
2023/04/07 04:25:41;;;;;;;12.87;8.23;;;7.70;79.20;;;10.98;49.54;97405.06;5062165;28;20052;-48
2023/04/07 04:28:11;;;;;;;10.90;7.47;;;7.70;79.30;;;11.03;49.40;97405.41;5050893;28;20510;-47
2023/04/07 04:30:40;;;;;;;11.17;6.70;;;7.70;79.10;;;11.06;49.55;97408.72;5057997;28;20045;-46
2023/04/07 04:33:09;;;;;;;9.83;8.00;;;7.80;78.70;;;11.07;49.63;97411.22;5057952;28;20399;-49
2023/04/07 04:35:45;;;;;;;10.53;8.37;;;7.80;78.80;;;11.09;49.13;97409.22;5058341;28;20049;-46
2023/04/07 04:38:16;;;;;;;11.90;8.43;;;7.70;78.70;;;11.09;49.57;97413.69;5046053;28;20429;-45
2023/04/07 04:40:51;;;;;;;11.90;8.63;;;7.70;78.90;;;11.04;49.40;97414.22;5060784;28;20051;-47
2023/04/07 04:43:24;;;;;;;12.05;8.25;;;7.60;79.00;;;11.03;49.31;97409.88;5058123;28;20037;-47
2023/04/07 04:45:52;;;;;;;14.47;10.13;;;7.60;79.10;;;11.02;49.30;97409.03;5065103;28;20047;-45
2023/04/07 04:48:24;;;;;;;12.60;8.50;;;7.60;79.60;;;10.98;49.26;97414.91;5061590;28;20529;-49
2023/04/07 04:50:51;;;;;;;13.23;8.63;;;7.50;79.70;;;10.95;49.72;97423.22;5062020;28;20040;-45
2023/04/07 04:53:20;;;;;;;14.00;8.33;;;7.50;80.30;;;10.93;49.30;97431.34;5057185;28;20049;-45
2023/04/07 04:55:59;;;;;;;13.43;8.33;;;7.50;80.30;;;10.94;49.63;97424.22;5060283;28;20425;-46
2023/04/07 04:58:39;;;;;;;12.97;7.90;;;7.40;80.20;;;10.94;49.80;97433.03;5061698;28;20047;-47
2023/04/07 05:01:07;;;;;;;11.07;6.70;;;7.40;80.20;;;10.94;49.54;97435.69;5041725;28;20044;-45
2023/04/07 05:03:40;;;;;;;10.77;6.93;;;7.50;80.70;;;10.94;49.69;97430.38;5057040;28;20068;-46
2023/04/07 05:06:20;;;;;;;15.77;8.00;;;7.50;80.80;;;10.95;49.75;97428.53;5057800;28;20049;-45
2023/04/07 05:08:50;;;;;;;11.73;8.33;;;7.50;80.50;;;10.95;49.81;97434.72;5039941;28;20052;-46
2023/04/07 05:11:21;;;;;;;10.50;7.50;;;7.50;80.40;;;10.94;49.47;97424.22;5061024;28;20040;-46
2023/04/07 05:13:52;;;;;;;11.73;8.33;;;7.50;80.40;;;10.95;49.59;97431.19;5059900;28;20044;-46
2023/04/07 05:16:20;;;;;;;11.43;8.17;;;7.50;80.30;;;10.97;49.86;97432.72;5057928;28;20052;-47
2023/04/07 05:18:47;;;;;;;10.07;7.30;;;7.60;80.20;;;10.99;49.81;97429.84;5046422;28;20096;-45
2023/04/07 05:21:16;;;;;;;12.87;8.73;;;7.60;79.90;;;11.01;49.71;97430.50;5061377;28;20047;-46
2023/04/07 05:23:44;;;;;;;11.00;8.13;;;7.60;79.90;;;11.00;49.83;97429.69;5060389;28;20119;-45
2023/04/07 05:26:12;;;;;;;11.60;8.03;;;7.60;79.70;;;10.97;49.60;97429.19;5053836;28;20052;-45
2023/04/07 05:28:42;;;;;;;12.23;7.30;;;7.60;79.70;;;10.97;49.71;97421.19;5053299;28;20052;-44
2023/04/07 05:31:15;;;;;;;12.85;7.80;;;7.50;79.50;;;10.95;49.61;97418.72;5050247;28;20041;-44
2023/04/07 05:33:46;;;;;;;10.23;7.73;;;7.50;79.80;;;10.92;49.94;97424.38;5049200;28;20048;-50
2023/04/07 05:36:15;;;;;;;12.03;7.70;;;7.50;80.00;;;10.90;50.20;97425.56;5060952;28;20055;-47
2023/04/07 05:38:43;;;;;;;10.97;7.93;;;7.50;80.20;;;10.93;49.86;97422.53;5060747;28;20127;-45
2023/04/07 05:41:14;;;;;;;11.17;8.57;;;7.50;80.50;;;10.96;49.94;97422.22;5054030;28;20044;-48
2023/04/07 05:43:41;;;;;;;17.90;8.33;;;7.60;80.30;;;10.97;50.02;97422.06;5066182;28;20050;-45
2023/04/07 05:46:09;;;;;;;13.10;8.33;;;7.60;80.10;;;10.96;49.99;97422.22;5059632;28;20047;-48
2023/04/07 05:48:46;;;;;;;12.67;8.57;;;7.60;80.00;;;10.94;49.96;97424.22;5060916;28;20513;-46
2023/04/07 05:51:14;;;;;;;14.10;8.30;;;7.60;79.90;;;10.96;50.10;97428.38;5049442;28;20413;-46
2023/04/07 05:53:42;;;;;;;12.00;7.90;;;7.60;80.00;;;10.95;49.77;97432.06;5056519;28;20057;-51
2023/04/07 05:56:10;;;;;;;11.53;8.53;;;7.60;80.00;;;10.96;49.96;97431.03;5060079;28;20040;-46
2023/04/07 05:58:43;;;;;;;12.57;9.13;;;7.60;79.90;;;10.96;49.58;97427.53;5060730;28;20056;-47
2023/04/07 06:01:12;;;;;;;19.27;11.50;;;7.60;79.80;;;10.94;49.89;97426.88;5052261;28;20049;-46
2023/04/07 06:03:39;;;;;;;15.43;9.63;;;7.50;80.00;;;10.93;49.71;97438.53;5059618;28;20532;-46
2023/04/07 06:06:14;;;;;;;15.07;10.10;;;7.50;80.10;;;10.91;50.06;97432.53;5069354;28;20537;-45
2023/04/07 06:08:42;;;;;;;17.40;10.67;;;7.50;80.20;;;10.90;49.88;97436.22;5060860;28;20425;-46
2023/04/07 06:11:12;;;;;;;12.43;8.33;;;7.50;80.20;;;10.87;50.01;97431.22;5063644;28;20402;-44
2023/04/07 06:13:39;;;;;;;12.00;8.53;;;7.50;80.40;;;10.87;50.33;97432.03;5065621;28;20051;-47
2023/04/07 06:16:08;;;;;;;11.53;8.07;;;7.50;80.30;;;10.89;49.71;97435.38;5061842;28;20044;-50
2023/04/07 06:18:37;;;;;;;13.23;8.10;;;7.60;80.00;;;10.87;49.93;97426.72;5060308;28;20057;-45
2023/04/07 06:21:06;;;;;;;10.93;7.90;;;7.50;80.10;;;10.90;50.22;97428.22;5062891;28;20447;-46
2023/04/07 06:23:33;;;;;;;9.20;7.47;;;7.60;80.10;;;10.93;49.47;97431.34;5065546;28;20085;-47
2023/04/07 06:26:01;;;;;;;12.97;8.37;;;7.60;79.60;;;10.95;49.51;97433.88;5063262;28;20056;-45
2023/04/07 06:28:29;;;;;;;10.47;7.60;;;7.60;79.40;;;10.92;49.73;97432.38;5063153;28;20041;-46
2023/04/07 06:30:58;;;;;;;12.27;7.40;;;7.60;79.50;;;10.89;49.52;97434.53;5041895;28;20071;-49
2023/04/07 06:33:27;;;;;;;10.77;8.07;;;7.50;79.60;;;10.84;49.70;97432.41;5059937;28;20051;-46
2023/04/07 06:35:56;;;;;;;11.63;7.87;;;7.50;79.60;;;10.82;49.82;97429.88;5062163;28;20363;-46
2023/04/07 06:38:24;;;;;;;13.97;8.80;;;7.50;80.10;;;10.80;50.25;97431.91;5060108;28;20048;-49
2023/04/07 06:40:51;;;;;;;10.63;7.67;;;7.50;80.40;;;10.79;49.85;97438.19;5061148;28;20056;-46
2023/04/07 06:43:19;;;;;;;11.93;7.40;;;7.50;80.20;;;10.78;50.23;97441.88;5063805;28;20044;-45
2023/04/07 06:45:55;;;;;;;12.00;8.37;;;7.50;80.60;;;10.80;50.06;97437.22;5061881;28;20060;-46
2023/04/07 06:48:23;;;;;;;13.87;8.47;;;7.50;80.40;;;10.82;50.28;97440.53;5061141;28;20029;-46
2023/04/07 06:50:51;;;;;;;14.60;10.57;;;7.50;80.40;;;10.86;49.85;97434.88;5061233;28;20041;-49
2023/04/07 06:53:18;;;;;;;18.23;11.70;;;7.60;80.00;;;10.91;50.16;97437.88;5052699;28;20040;-47
2023/04/07 06:55:46;;;;;;;10.60;7.60;;;7.60;79.80;;;10.94;50.01;97441.03;5060718;28;20044;-47
2023/04/07 06:58:13;;;;;;;9.77;7.23;;;7.70;79.60;;;11.01;49.84;97433.19;5063510;28;20417;-45
2023/04/07 07:00:41;;;;;;;10.97;7.40;;;7.80;79.50;;;11.07;50.05;97427.19;5062868;28;20083;-46
2023/04/07 07:03:08;;;;;;;11.67;7.17;;;7.80;79.20;;;11.07;49.80;97429.00;5061508;28;20051;-46
2023/04/07 07:05:36;;;;;;;9.50;6.87;;;7.80;79.00;;;11.07;49.95;97429.88;5060907;28;20044;-49
2023/04/07 07:08:03;;;;;;;11.00;6.80;;;7.80;78.80;;;11.09;49.99;97427.88;5062372;28;20548;-45
2023/04/07 07:10:31;;;;;;;8.13;6.10;;;7.80;78.50;;;11.09;49.61;97424.34;5063938;28;20037;-45
2023/04/07 07:12:59;;;;;;;8.73;7.87;;;7.80;78.30;;;11.10;49.70;97429.50;5061590;28;20041;-46
2023/04/07 07:15:26;;;;;;;8.10;6.73;;;7.90;78.30;;;11.14;49.58;97424.69;5060516;28;20033;-46
2023/04/07 07:17:54;;;;;;;9.87;6.47;;;7.90;78.20;;;11.18;49.65;97426.00;5060681;28;20051;-47
2023/04/07 07:20:22;;;;;;;10.33;6.17;;;7.90;78.10;;;11.19;49.93;97433.00;5063947;28;20041;-49
2023/04/07 07:22:49;;;;;;;9.00;6.17;;;7.90;78.10;;;11.23;49.45;97434.31;5062712;28;20433;-46
2023/04/07 07:25:17;;;;;;;6.73;5.47;;;8.00;77.90;;;11.28;49.18;97439.13;5033937;28;20045;-47
2023/04/07 07:27:45;;;;;;;9.40;6.00;;;8.00;77.90;;;11.24;49.30;97430.63;5060341;28;20521;-47
2023/04/07 07:30:12;;;;;;;6.70;5.20;;;8.00;77.30;;;11.30;49.35;97434.47;5062745;28;20045;-48
2023/04/07 07:32:40;;;;;;;9.53;5.23;;;8.10;77.00;;;11.28;49.50;97439.13;5063286;28;20055;-45
2023/04/07 07:35:07;;;;;;;7.27;5.10;;;8.10;76.90;;;11.33;49.15;97434.94;5059311;28;20498;-46
2023/04/07 07:37:35;;;;;;;6.57;5.03;;;8.20;76.20;;;11.46;49.46;97433.56;5060469;28;20063;-46
2023/04/07 07:40:03;;;;;;;7.30;4.30;;;8.20;75.80;;;11.56;49.04;97440.38;5061051;28;20049;-47
2023/04/07 07:42:31;;;;;;;6.90;4.97;;;8.40;75.50;;;11.53;48.78;97439.88;5061838;28;20040;-47
2023/04/07 07:44:58;;;;;;;6.80;4.53;;;8.30;74.90;;;11.43;48.61;97440.91;5062592;28;20048;-46
2023/04/07 07:47:26;;;;;;;6.30;4.70;;;8.20;74.70;;;11.41;48.74;97434.91;5059806;28;20044;-46
2023/04/07 07:49:54;;;;;;;7.90;5.70;;;8.20;75.70;;;11.38;49.14;97432.63;5057666;28;20045;-46
2023/04/07 07:52:21;;;;;;;6.90;5.20;;;8.20;75.40;;;11.42;48.92;97436.59;5051103;28;20048;-47
2023/04/07 07:54:50;;;;;;;7.57;4.87;;;8.30;75.80;;;11.50;49.17;97442.91;5059438;28;20052;-50
2023/04/07 07:57:17;;;;;;;10.70;6.40;;;8.30;75.40;;;11.53;48.79;97437.22;5061237;28;20040;-48
2023/04/07 07:59:45;;;;;;;7.63;5.43;;;8.30;75.10;;;11.52;49.04;97439.06;5039386;28;20042;-46
2023/04/07 08:02:13;;;;;;;6.73;5.57;;;8.30;75.60;;;11.57;49.09;97433.19;5060981;28;20041;-47
2023/04/07 08:04:40;;;;;;;8.47;5.73;;;8.40;75.30;;;11.55;49.38;97436.03;5062294;28;20501;-47
2023/04/07 08:07:08;;;;;;;9.03;5.60;;;8.40;75.70;;;11.59;49.10;97434.72;5062638;28;20052;-46
2023/04/07 08:09:35;;;;;;;7.17;4.47;;;8.40;75.90;;;11.67;49.04;97433.84;5059972;28;20037;-48
2023/04/07 08:12:03;;;;;;;8.07;5.53;;;8.50;76.00;;;11.70;49.34;97436.16;5061140;28;20052;-45
2023/04/07 08:14:31;;;;;;;6.83;4.87;;;8.50;76.20;;;11.69;49.59;97441.66;5063435;28;20048;-48
2023/04/07 08:16:58;;;;;;;6.83;5.27;;;8.60;77.00;;;11.72;49.98;97438.66;5063341;28;20402;-50
2023/04/07 08:19:26;;;;;;;8.13;5.13;;;8.60;77.90;;;11.77;49.93;97436.31;5060304;28;20063;-47
2023/04/07 08:21:53;;;;;;;7.63;4.70;;;8.70;77.20;;;11.80;49.71;97439.44;5059766;28;20045;-47
2023/04/07 08:24:21;;;;;;;7.17;5.50;;;8.70;77.20;;;11.85;49.97;97443.44;5059648;28;20060;-47
2023/04/07 08:26:48;;;;;;;10.97;6.83;;;8.80;77.20;;;11.69;50.54;97450.50;5060341;28;20053;-46
2023/04/07 08:29:16;;;;;;;6.47;5.17;;;8.70;77.40;;;11.81;50.03;97451.78;5061475;28;20452;-45
2023/04/07 08:31:43;;;;;;;6.70;4.93;;;8.80;77.40;;;11.91;49.70;97454.25;5063326;28;20045;-47
2023/04/07 08:34:12;;;;;;;6.17;4.37;;;8.90;77.30;;;12.00;49.72;97447.06;5061015;28;20048;-49
2023/04/07 08:36:40;;;;;;;6.70;4.67;;;8.90;77.00;;;12.07;49.66;97449.84;5060173;28;20048;-46
2023/04/07 08:39:10;;;;;;;9.27;7.37;;;9.00;76.70;;;12.01;49.91;97440.69;5061843;28;20049;-47
2023/04/07 08:41:43;;;;;;;6.50;4.83;;;8.90;77.20;;;12.00;50.25;97455.88;5063395;28;20442;-46
2023/04/07 08:44:13;;;;;;;8.20;6.05;;;9.00;77.70;;;12.10;50.46;97450.34;5060842;28;20425;-47
2023/04/07 08:46:43;;;;;;;9.83;6.20;;;9.10;78.60;;;12.18;50.55;97452.13;5058808;28;20148;-45
2023/04/07 08:49:12;;;;;;;10.43;5.70;;;9.20;77.80;;;12.35;50.63;97451.00;5060378;28;20064;-47
2023/04/07 08:51:47;;;;;;;11.93;8.03;;;9.40;77.70;;;12.59;50.23;97463.34;5055228;28;20414;-48
2023/04/07 08:54:17;;;;;;;5.20;4.17;;;9.60;78.00;;;12.70;49.59;97454.09;5059583;28;20048;-47
2023/04/07 08:56:45;;;;;;;9.73;5.63;;;9.70;74.60;;;12.74;49.03;97454.56;5063118;28;20055;-47
2023/04/07 08:59:17;;;;;;;7.03;5.33;;;9.80;74.50;;;12.83;49.12;97455.31;5060747;28;20052;-47
2023/04/07 09:01:46;;;;;;;7.43;5.00;;;9.80;74.50;;;12.83;48.69;97449.97;5059790;28;20056;-47
2023/04/07 09:04:13;;;;;;;7.80;5.17;;;9.90;73.50;;;12.83;48.96;97453.47;5059967;28;20196;-48
2023/04/07 09:06:42;;;;;;;7.20;5.00;;;9.80;74.00;;;12.89;49.15;97454.59;5061884;28;20053;-46
2023/04/07 09:09:10;;;;;;;7.97;5.10;;;9.90;74.90;;;12.98;49.01;97456.19;5061073;28;20047;-48
2023/04/07 09:11:39;;;;;;;5.90;4.47;;;10.00;74.70;;;12.96;49.41;97461.72;5041477;28;20044;-47
2023/04/07 09:14:07;;;;;;;7.87;4.90;;;10.00;74.10;;;13.08;49.08;97458.59;5060171;28;20052;-48
2023/04/07 09:16:35;;;;;;;6.93;5.47;;;10.10;74.00;;;13.15;48.84;97459.53;5062786;28;20041;-49
2023/04/07 09:19:02;;;;;;;6.33;5.00;;;10.20;73.80;;;13.25;48.69;97461.97;5061011;28;20053;-49
2023/04/07 09:21:51;;;;;;;4.93;4.33;;;10.30;73.30;;;13.29;48.80;97458.72;5059325;28;20071;-47
2023/04/07 09:24:27;;;;;;;7.23;4.67;;;10.40;73.50;;;13.37;48.56;97461.34;5061800;28;20045;-46
2023/04/07 09:27:11;;;;;;;7.40;4.60;;;10.40;72.80;;;13.38;48.01;97463.00;5062590;28;20052;-48
2023/04/07 09:29:44;;;;;;;8.47;3.73;;;10.40;71.30;;;13.39;47.97;97459.31;5053101;28;20041;-49
2023/04/07 09:32:12;;;;;;;3.63;2.80;;;10.40;72.20;;;13.46;47.77;97458.59;5054634;28;20048;-50
2023/04/07 09:34:40;;;;;;;4.97;3.50;;;10.40;70.60;;;13.52;47.24;97452.50;5032368;28;20044;-50
2023/04/07 09:37:21;;;;;;;6.40;3.47;;;10.50;69.90;;;13.61;46.98;97455.91;5034987;28;20597;-49
2023/04/07 09:39:52;;;;;;;4.33;2.90;;;10.70;69.10;;;13.79;46.99;97459.03;5040572;28;20418;-49
2023/04/07 09:42:20;;;;;;;4.80;3.47;;;10.80;68.70;;;13.86;46.94;97462.66;5038099;28;20049;-48
2023/04/07 09:44:48;;;;;;;4.80;3.03;;;10.90;69.30;;;13.86;46.45;97459.13;5040058;28;20060;-48
2023/04/07 09:47:16;;;;;;;4.80;2.93;;;11.00;66.60;;;14.03;46.38;97457.88;5043753;28;20045;-48
2023/04/07 09:49:52;;;;;;;6.83;3.50;;;11.10;68.50;;;14.16;46.21;97466.06;5042895;28;20041;-48
2023/04/07 09:52:45;;;;;;;6.83;2.43;;;11.20;67.80;;;14.31;46.06;97455.34;5037711;28;20064;-48
2023/04/07 09:55:14;;;;;;;7.47;2.93;;;11.30;67.60;;;14.26;45.26;97463.09;5041193;28;20049;-47
2023/04/07 09:57:44;;;;;;;3.70;2.80;;;11.30;65.50;;;14.41;45.84;97454.22;5038620;28;20056;-47
2023/04/07 10:00:12;;;;;;;4.73;3.33;;;11.40;67.10;;;14.42;45.68;97459.34;5025704;28;21210;-48
2023/04/07 10:02:42;;;;;;;5.25;3.92;;;11.40;66.10;;;14.38;45.73;97458.94;5045021;28;20077;-49
2023/04/07 10:05:10;;;;;;;5.67;3.73;;;11.40;66.80;;;14.51;45.60;97455.53;5042984;28;20506;-48
2023/04/07 10:07:38;;;;;;;7.03;4.40;;;11.60;67.00;;;14.65;45.81;97459.19;5043426;28;20049;-51
2023/04/07 10:10:09;;;;;;;6.63;4.07;;;11.70;67.10;;;14.72;45.56;97457.41;5043537;28;20502;-48
2023/04/07 10:12:37;;;;;;;4.78;3.05;;;11.80;66.50;;;14.76;45.04;97455.19;5042230;28;20033;-47
2023/04/07 10:15:06;;;;;;;4.75;2.67;;;11.80;64.70;;;14.72;44.60;97453.91;5033513;28;20046;-48
2023/04/07 10:17:36;;;;;;;3.90;2.72;;;11.80;65.00;;;14.79;44.55;97457.47;5043345;28;20495;-46
2023/04/07 10:20:08;;;;;;;4.88;2.65;;;11.80;64.90;;;14.92;45.00;97454.91;5039710;28;20372;-49
2023/04/07 10:22:40;;;;;;;3.92;2.78;;;12.00;64.80;;;15.03;44.46;97458.94;5037903;28;20048;-50
2023/04/07 10:25:11;;;;;;;6.20;3.20;;;12.10;64.40;;;15.16;44.33;97453.66;5030328;28;20052;-48
2023/04/07 10:27:55;;;;;;;5.90;3.05;;;12.20;63.60;;;15.16;43.67;97458.22;5038593;28;20060;-46
2023/04/07 10:30:33;;;;;;;4.70;4.10;;;12.20;63.10;;;15.21;44.11;97460.28;5042125;28;20078;-48
2023/04/07 10:33:01;;;;;;;6.75;5.15;;;12.20;64.00;;;15.23;44.18;97456.38;5041584;28;20045;-48
2023/04/07 10:36:06;;;;;;;5.75;5.10;;;12.20;64.00;;;15.30;44.96;97451.09;5041416;28;20041;-51